sensor_id;sensor_type;location;lat;lon;timestamp;temperature;humidity
36652;DHT22;53334;51.976;20.144;2022-07-23T00:00:35;27.90;48.90
36652;DHT22;53334;51.976;20.144;2022-07-23T00:03:11;27.90;48.90
36652;DHT22;53334;51.976;20.144;2022-07-23T00:05:45;27.90;48.90
36652;DHT22;53334;51.976;20.144;2022-07-23T00:08:18;27.90;48.90
36652;DHT22;53334;51.976;20.144;2022-07-23T00:10:52;27.90;48.90
36652;DHT22;53334;51.976;20.144;2022-07-23T00:13:27;27.90;48.90
36652;DHT22;53334;51.976;20.144;2022-07-23T00:16:03;27.90;48.90
36652;DHT22;53334;51.976;20.144;2022-07-23T00:18:37;27.90;48.90
36652;DHT22;53334;51.976;20.144;2022-07-23T00:21:11;27.90;48.90
36652;DHT22;53334;51.976;20.144;2022-07-23T00:23:45;27.90;48.90
36652;DHT22;53334;51.976;20.144;2022-07-23T00:26:19;27.90;48.90
36652;DHT22;53334;51.976;20.144;2022-07-23T00:28:53;27.90;48.90
36652;DHT22;53334;51.976;20.144;2022-07-23T00:31:28;27.90;48.90
36652;DHT22;53334;51.976;20.144;2022-07-23T00:34:02;27.90;48.90
36652;DHT22;53334;51.976;20.144;2022-07-23T00:36:36;27.90;48.90
36652;DHT22;53334;51.976;20.144;2022-07-23T00:39:10;27.90;48.90
36652;DHT22;53334;51.976;20.144;2022-07-23T00:41:44;27.90;48.90
36652;DHT22;53334;51.976;20.144;2022-07-23T00:44:20;27.90;48.90
36652;DHT22;53334;51.976;20.144;2022-07-23T00:46:57;27.90;49.00
36652;DHT22;53334;51.976;20.144;2022-07-23T00:49:32;27.90;48.90
36652;DHT22;53334;51.976;20.144;2022-07-23T00:52:06;27.90;48.90
36652;DHT22;53334;51.976;20.144;2022-07-23T00:54:40;27.90;49.00
36652;DHT22;53334;51.976;20.144;2022-07-23T00:57:14;27.90;49.00
36652;DHT22;53334;51.976;20.144;2022-07-23T00:59:48;27.90;49.00
36652;DHT22;53334;51.976;20.144;2022-07-23T01:02:24;27.90;49.00
36652;DHT22;53334;51.976;20.144;2022-07-23T01:04:58;27.90;49.00
36652;DHT22;53334;51.976;20.144;2022-07-23T01:07:33;27.90;49.00
36652;DHT22;53334;51.976;20.144;2022-07-23T01:10:08;27.90;49.00
36652;DHT22;53334;51.976;20.144;2022-07-23T01:12:57;27.90;49.00
36652;DHT22;53334;51.976;20.144;2022-07-23T01:15:31;27.90;49.00
36652;DHT22;53334;51.976;20.144;2022-07-23T01:18:08;27.90;49.00
36652;DHT22;53334;51.976;20.144;2022-07-23T01:20:43;27.90;49.00
36652;DHT22;53334;51.976;20.144;2022-07-23T01:23:19;27.90;49.00
36652;DHT22;53334;51.976;20.144;2022-07-23T01:25:58;27.80;48.90
36652;DHT22;53334;51.976;20.144;2022-07-23T01:28:33;27.90;49.00
36652;DHT22;53334;51.976;20.144;2022-07-23T01:31:07;27.90;49.00
36652;DHT22;53334;51.976;20.144;2022-07-23T01:33:41;27.90;49.00
36652;DHT22;53334;51.976;20.144;2022-07-23T01:36:15;27.90;49.00
36652;DHT22;53334;51.976;20.144;2022-07-23T01:38:50;27.90;49.00
36652;DHT22;53334;51.976;20.144;2022-07-23T01:41:25;27.90;49.00
36652;DHT22;53334;51.976;20.144;2022-07-23T01:44:01;27.90;49.00
36652;DHT22;53334;51.976;20.144;2022-07-23T01:46:35;27.90;49.00
36652;DHT22;53334;51.976;20.144;2022-07-23T01:49:09;27.90;49.00
36652;DHT22;53334;51.976;20.144;2022-07-23T01:52:09;27.90;49.00
36652;DHT22;53334;51.976;20.144;2022-07-23T01:54:51;27.90;49.00
36652;DHT22;53334;51.976;20.144;2022-07-23T01:57:25;27.90;49.00
36652;DHT22;53334;51.976;20.144;2022-07-23T02:00:00;27.90;49.00
36652;DHT22;53334;51.976;20.144;2022-07-23T02:02:44;27.90;49.00
36652;DHT22;53334;51.976;20.144;2022-07-23T02:05:18;27.90;49.20
36652;DHT22;53334;51.976;20.144;2022-07-23T02:07:52;27.90;49.00
36652;DHT22;53334;51.976;20.144;2022-07-23T02:10:28;27.90;49.10
36652;DHT22;53334;51.976;20.144;2022-07-23T02:13:02;27.90;49.00
36652;DHT22;53334;51.976;20.144;2022-07-23T02:15:37;27.90;49.00
36652;DHT22;53334;51.976;20.144;2022-07-23T02:18:11;27.90;49.10
36652;DHT22;53334;51.976;20.144;2022-07-23T02:20:45;27.90;49.10
36652;DHT22;53334;51.976;20.144;2022-07-23T02:23:19;27.90;49.00
36652;DHT22;53334;51.976;20.144;2022-07-23T02:25:55;27.90;49.10
36652;DHT22;53334;51.976;20.144;2022-07-23T02:28:29;27.90;49.10
36652;DHT22;53334;51.976;20.144;2022-07-23T02:31:03;27.90;49.10
36652;DHT22;53334;51.976;20.144;2022-07-23T02:33:39;27.90;49.10
36652;DHT22;53334;51.976;20.144;2022-07-23T02:36:13;27.90;49.10
36652;DHT22;53334;51.976;20.144;2022-07-23T02:38:47;27.90;49.10
36652;DHT22;53334;51.976;20.144;2022-07-23T02:41:23;27.90;49.10
36652;DHT22;53334;51.976;20.144;2022-07-23T02:43:57;27.90;49.10
36652;DHT22;53334;51.976;20.144;2022-07-23T02:46:32;27.90;49.10
36652;DHT22;53334;51.976;20.144;2022-07-23T02:49:07;27.90;49.10
36652;DHT22;53334;51.976;20.144;2022-07-23T02:51:41;27.90;49.70
36652;DHT22;53334;51.976;20.144;2022-07-23T02:54:16;27.90;49.10
36652;DHT22;53334;51.976;20.144;2022-07-23T02:56:52;27.90;49.10
36652;DHT22;53334;51.976;20.144;2022-07-23T02:59:26;27.90;49.10
36652;DHT22;53334;51.976;20.144;2022-07-23T03:02:00;27.90;49.10
36652;DHT22;53334;51.976;20.144;2022-07-23T03:04:34;27.90;49.10
36652;DHT22;53334;51.976;20.144;2022-07-23T03:07:08;27.90;49.10
36652;DHT22;53334;51.976;20.144;2022-07-23T03:09:42;27.90;49.10
36652;DHT22;53334;51.976;20.144;2022-07-23T03:12:17;27.90;49.10
36652;DHT22;53334;51.976;20.144;2022-07-23T03:14:51;27.90;49.10
36652;DHT22;53334;51.976;20.144;2022-07-23T03:17:25;27.90;49.10
36652;DHT22;53334;51.976;20.144;2022-07-23T03:20:00;27.90;49.10
36652;DHT22;53334;51.976;20.144;2022-07-23T03:22:34;27.90;49.10
36652;DHT22;53334;51.976;20.144;2022-07-23T03:25:09;27.90;49.10
36652;DHT22;53334;51.976;20.144;2022-07-23T03:27:45;27.90;49.10
36652;DHT22;53334;51.976;20.144;2022-07-23T03:30:19;27.90;49.10
36652;DHT22;53334;51.976;20.144;2022-07-23T03:32:53;27.90;49.10
36652;DHT22;53334;51.976;20.144;2022-07-23T03:35:28;27.90;49.20
36652;DHT22;53334;51.976;20.144;2022-07-23T03:38:31;27.90;49.10
36652;DHT22;53334;51.976;20.144;2022-07-23T03:41:05;27.80;49.10
36652;DHT22;53334;51.976;20.144;2022-07-23T03:43:41;27.80;49.10
36652;DHT22;53334;51.976;20.144;2022-07-23T03:46:16;27.90;49.20
36652;DHT22;53334;51.976;20.144;2022-07-23T03:48:50;27.80;49.10
36652;DHT22;53334;51.976;20.144;2022-07-23T03:51:30;27.90;49.20
36652;DHT22;53334;51.976;20.144;2022-07-23T03:54:05;27.80;49.10
36652;DHT22;53334;51.976;20.144;2022-07-23T03:56:39;27.80;49.10
36652;DHT22;53334;51.976;20.144;2022-07-23T03:59:14;27.80;49.10
36652;DHT22;53334;51.976;20.144;2022-07-23T04:01:55;27.80;49.10
36652;DHT22;53334;51.976;20.144;2022-07-23T04:04:29;27.80;49.10
36652;DHT22;53334;51.976;20.144;2022-07-23T04:07:03;27.90;49.20
36652;DHT22;53334;51.976;20.144;2022-07-23T04:09:39;27.80;49.10
36652;DHT22;53334;51.976;20.144;2022-07-23T04:12:18;27.90;49.20
36652;DHT22;53334;51.976;20.144;2022-07-23T04:14:53;27.80;49.10
36652;DHT22;53334;51.976;20.144;2022-07-23T04:17:27;27.90;49.20
36652;DHT22;53334;51.976;20.144;2022-07-23T04:20:02;27.80;49.10
36652;DHT22;53334;51.976;20.144;2022-07-23T04:22:42;27.80;49.10
36652;DHT22;53334;51.976;20.144;2022-07-23T04:25:17;27.80;49.10
36652;DHT22;53334;51.976;20.144;2022-07-23T04:27:51;27.80;49.10
36652;DHT22;53334;51.976;20.144;2022-07-23T04:30:26;27.80;49.10
36652;DHT22;53334;51.976;20.144;2022-07-23T04:33:01;27.80;49.10
36652;DHT22;53334;51.976;20.144;2022-07-23T04:35:38;27.80;49.20
36652;DHT22;53334;51.976;20.144;2022-07-23T04:38:23;27.80;49.10
36652;DHT22;53334;51.976;20.144;2022-07-23T04:41:01;27.80;49.20
36652;DHT22;53334;51.976;20.144;2022-07-23T04:43:35;27.80;49.10
36652;DHT22;53334;51.976;20.144;2022-07-23T04:46:10;27.80;49.10
36652;DHT22;53334;51.976;20.144;2022-07-23T04:48:51;27.80;49.10
36652;DHT22;53334;51.976;20.144;2022-07-23T04:51:25;27.80;49.10
36652;DHT22;53334;51.976;20.144;2022-07-23T04:53:59;27.80;49.10
36652;DHT22;53334;51.976;20.144;2022-07-23T04:56:33;27.80;49.10
36652;DHT22;53334;51.976;20.144;2022-07-23T04:59:07;27.80;49.10
36652;DHT22;53334;51.976;20.144;2022-07-23T05:01:43;27.80;49.10
36652;DHT22;53334;51.976;20.144;2022-07-23T05:04:17;27.90;49.20
36652;DHT22;53334;51.976;20.144;2022-07-23T05:06:52;27.80;49.20
36652;DHT22;53334;51.976;20.144;2022-07-23T05:09:26;27.80;49.10
36652;DHT22;53334;51.976;20.144;2022-07-23T05:12:00;27.80;49.10
36652;DHT22;53334;51.976;20.144;2022-07-23T05:14:36;27.80;49.10
36652;DHT22;53334;51.976;20.144;2022-07-23T05:17:12;27.80;49.20
36652;DHT22;53334;51.976;20.144;2022-07-23T05:19:46;27.80;49.20
36652;DHT22;53334;51.976;20.144;2022-07-23T05:22:21;27.80;49.20
36652;DHT22;53334;51.976;20.144;2022-07-23T05:24:55;27.80;49.20
36652;DHT22;53334;51.976;20.144;2022-07-23T05:27:29;27.80;49.20
36652;DHT22;53334;51.976;20.144;2022-07-23T05:30:04;27.80;49.20
36652;DHT22;53334;51.976;20.144;2022-07-23T05:32:42;27.80;49.20
36652;DHT22;53334;51.976;20.144;2022-07-23T05:35:20;27.90;49.20
36652;DHT22;53334;51.976;20.144;2022-07-23T05:38:08;27.80;49.20
36652;DHT22;53334;51.976;20.144;2022-07-23T05:40:42;27.80;49.20
36652;DHT22;53334;51.976;20.144;2022-07-23T05:43:17;27.80;49.20
36652;DHT22;53334;51.976;20.144;2022-07-23T05:45:51;27.80;49.10
36652;DHT22;53334;51.976;20.144;2022-07-23T05:48:26;27.80;49.20
36652;DHT22;53334;51.976;20.144;2022-07-23T05:51:11;27.90;49.20
36652;DHT22;53334;51.976;20.144;2022-07-23T05:53:45;27.80;49.20
36652;DHT22;53334;51.976;20.144;2022-07-23T05:56:26;27.80;49.20
36652;DHT22;53334;51.976;20.144;2022-07-23T05:59:00;27.80;49.20
36652;DHT22;53334;51.976;20.144;2022-07-23T06:01:35;27.80;49.20
36652;DHT22;53334;51.976;20.144;2022-07-23T06:04:16;27.80;49.20
36652;DHT22;53334;51.976;20.144;2022-07-23T06:07:01;27.80;49.20
36652;DHT22;53334;51.976;20.144;2022-07-23T06:09:35;27.90;49.30
36652;DHT22;53334;51.976;20.144;2022-07-23T06:12:09;27.90;49.20
36652;DHT22;53334;51.976;20.144;2022-07-23T06:14:43;27.90;49.20
36652;DHT22;53334;51.976;20.144;2022-07-23T06:17:18;27.80;49.20
36652;DHT22;53334;51.976;20.144;2022-07-23T06:19:54;27.80;49.20
36652;DHT22;53334;51.976;20.144;2022-07-23T06:22:28;27.90;49.20
36652;DHT22;53334;51.976;20.144;2022-07-23T06:25:03;27.90;49.20
36652;DHT22;53334;51.976;20.144;2022-07-23T06:27:43;27.90;49.20
36652;DHT22;53334;51.976;20.144;2022-07-23T06:30:17;27.90;49.20
36652;DHT22;53334;51.976;20.144;2022-07-23T06:32:52;27.90;49.20
36652;DHT22;53334;51.976;20.144;2022-07-23T06:35:27;27.90;49.20
36652;DHT22;53334;51.976;20.144;2022-07-23T06:38:01;27.90;49.20
36652;DHT22;53334;51.976;20.144;2022-07-23T06:40:36;27.90;49.20
36652;DHT22;53334;51.976;20.144;2022-07-23T06:43:10;27.90;49.20
36652;DHT22;53334;51.976;20.144;2022-07-23T06:45:44;27.90;49.20
36652;DHT22;53334;51.976;20.144;2022-07-23T06:48:18;27.90;49.20
36652;DHT22;53334;51.976;20.144;2022-07-23T06:50:54;27.90;49.20
36652;DHT22;53334;51.976;20.144;2022-07-23T06:53:29;27.90;49.20
36652;DHT22;53334;51.976;20.144;2022-07-23T06:56:03;27.90;49.20
36652;DHT22;53334;51.976;20.144;2022-07-23T06:58:38;27.90;49.70
36652;DHT22;53334;51.976;20.144;2022-07-23T07:01:12;27.90;49.10
36652;DHT22;53334;51.976;20.144;2022-07-23T07:03:46;27.90;49.10
36652;DHT22;53334;51.976;20.144;2022-07-23T07:06:21;27.90;49.10
36652;DHT22;53334;51.976;20.144;2022-07-23T07:08:56;27.90;49.10
36652;DHT22;53334;51.976;20.144;2022-07-23T07:11:31;27.90;49.10
36652;DHT22;53334;51.976;20.144;2022-07-23T07:14:05;27.90;49.10
36652;DHT22;53334;51.976;20.144;2022-07-23T07:16:39;27.90;49.10
36652;DHT22;53334;51.976;20.144;2022-07-23T07:19:13;27.90;49.10
36652;DHT22;53334;51.976;20.144;2022-07-23T07:21:48;27.90;49.10
36652;DHT22;53334;51.976;20.144;2022-07-23T07:24:22;27.90;49.00
36652;DHT22;53334;51.976;20.144;2022-07-23T07:27:04;27.90;49.00
36652;DHT22;53334;51.976;20.144;2022-07-23T07:29:38;28.00;49.10
36652;DHT22;53334;51.976;20.144;2022-07-23T07:32:12;28.00;49.10
36652;DHT22;53334;51.976;20.144;2022-07-23T07:35:06;27.90;49.00
36652;DHT22;53334;51.976;20.144;2022-07-23T07:37:42;28.00;49.10
36652;DHT22;53334;51.976;20.144;2022-07-23T07:40:16;28.00;49.00
36652;DHT22;53334;51.976;20.144;2022-07-23T07:42:52;28.00;49.60
36652;DHT22;53334;51.976;20.144;2022-07-23T07:45:26;28.00;49.00
36652;DHT22;53334;51.976;20.144;2022-07-23T07:48:00;28.00;49.00
36652;DHT22;53334;51.976;20.144;2022-07-23T07:50:34;28.00;49.00
36652;DHT22;53334;51.976;20.144;2022-07-23T07:53:10;28.00;49.00
36652;DHT22;53334;51.976;20.144;2022-07-23T07:55:44;28.00;48.90
36652;DHT22;53334;51.976;20.144;2022-07-23T07:58:24;28.00;48.90
36652;DHT22;53334;51.976;20.144;2022-07-23T08:00:58;28.00;48.90
36652;DHT22;53334;51.976;20.144;2022-07-23T08:03:33;28.00;48.90
36652;DHT22;53334;51.976;20.144;2022-07-23T08:06:08;28.10;48.90
36652;DHT22;53334;51.976;20.144;2022-07-23T08:08:44;28.10;48.90
36652;DHT22;53334;51.976;20.144;2022-07-23T08:11:20;28.10;48.90
36652;DHT22;53334;51.976;20.144;2022-07-23T08:13:54;28.10;48.90
36652;DHT22;53334;51.976;20.144;2022-07-23T08:16:28;28.10;48.90
36652;DHT22;53334;51.976;20.144;2022-07-23T08:19:22;28.10;48.90
36652;DHT22;53334;51.976;20.144;2022-07-23T08:21:56;28.10;48.80
36652;DHT22;53334;51.976;20.144;2022-07-23T08:24:32;28.10;48.80
36652;DHT22;53334;51.976;20.144;2022-07-23T08:27:06;28.10;48.80
36652;DHT22;53334;51.976;20.144;2022-07-23T08:29:40;28.10;48.80
36652;DHT22;53334;51.976;20.144;2022-07-23T08:32:14;28.10;48.80
36652;DHT22;53334;51.976;20.144;2022-07-23T08:35:08;28.10;48.70
36652;DHT22;53334;51.976;20.144;2022-07-23T08:37:42;28.10;48.70
36652;DHT22;53334;51.976;20.144;2022-07-23T08:40:18;28.10;48.70
36652;DHT22;53334;51.976;20.144;2022-07-23T08:42:52;28.10;48.70
36652;DHT22;53334;51.976;20.144;2022-07-23T08:45:27;28.10;48.70
36652;DHT22;53334;51.976;20.144;2022-07-23T08:48:02;28.10;48.70
36652;DHT22;53334;51.976;20.144;2022-07-23T08:50:37;28.20;48.70
36652;DHT22;53334;51.976;20.144;2022-07-23T08:53:16;28.20;48.70
36652;DHT22;53334;51.976;20.144;2022-07-23T08:55:52;28.20;48.70
36652;DHT22;53334;51.976;20.144;2022-07-23T08:58:27;28.20;48.70
36652;DHT22;53334;51.976;20.144;2022-07-23T09:01:01;28.20;48.70
36652;DHT22;53334;51.976;20.144;2022-07-23T09:03:36;28.20;48.70
36652;DHT22;53334;51.976;20.144;2022-07-23T09:06:12;28.20;48.70
36652;DHT22;53334;51.976;20.144;2022-07-23T09:08:46;28.20;48.70
36652;DHT22;53334;51.976;20.144;2022-07-23T09:11:21;28.20;48.60
36652;DHT22;53334;51.976;20.144;2022-07-23T09:13:55;28.20;48.60
36652;DHT22;53334;51.976;20.144;2022-07-23T09:16:33;28.20;48.60
36652;DHT22;53334;51.976;20.144;2022-07-23T09:19:07;28.20;48.60
36652;DHT22;53334;51.976;20.144;2022-07-23T09:21:41;28.20;48.60
36652;DHT22;53334;51.976;20.144;2022-07-23T09:24:15;28.20;48.60
36652;DHT22;53334;51.976;20.144;2022-07-23T09:26:52;28.20;48.60
36652;DHT22;53334;51.976;20.144;2022-07-23T09:29:27;28.20;48.60
36652;DHT22;53334;51.976;20.144;2022-07-23T09:32:02;28.20;48.60
36652;DHT22;53334;51.976;20.144;2022-07-23T09:34:40;28.20;48.50
36652;DHT22;53334;51.976;20.144;2022-07-23T09:37:22;28.20;48.50
36652;DHT22;53334;51.976;20.144;2022-07-23T09:40:04;28.20;48.50
36652;DHT22;53334;51.976;20.144;2022-07-23T09:42:40;28.20;48.50
36652;DHT22;53334;51.976;20.144;2022-07-23T09:45:14;28.30;48.60
36652;DHT22;53334;51.976;20.144;2022-07-23T09:47:48;28.30;48.60
36652;DHT22;53334;51.976;20.144;2022-07-23T09:50:22;28.30;48.60
36652;DHT22;53334;51.976;20.144;2022-07-23T09:52:58;28.30;48.60
36652;DHT22;53334;51.976;20.144;2022-07-23T09:55:33;28.30;48.50
36652;DHT22;53334;51.976;20.144;2022-07-23T09:58:11;28.30;48.50
36652;DHT22;53334;51.976;20.144;2022-07-23T10:00:46;28.30;48.50
36652;DHT22;53334;51.976;20.144;2022-07-23T10:03:23;28.30;48.50
36652;DHT22;53334;51.976;20.144;2022-07-23T10:06:16;28.30;48.50
36652;DHT22;53334;51.976;20.144;2022-07-23T10:09:29;28.30;48.50
36652;DHT22;53334;51.976;20.144;2022-07-23T10:12:22;28.30;48.50
36652;DHT22;53334;51.976;20.144;2022-07-23T10:15:08;28.30;48.50
36652;DHT22;53334;51.976;20.144;2022-07-23T10:17:42;28.30;48.50
36652;DHT22;53334;51.976;20.144;2022-07-23T10:20:16;28.30;48.50
36652;DHT22;53334;51.976;20.144;2022-07-23T10:22:57;28.30;48.50
36652;DHT22;53334;51.976;20.144;2022-07-23T10:25:39;28.30;48.40
36652;DHT22;53334;51.976;20.144;2022-07-23T10:28:46;28.30;48.50
36652;DHT22;53334;51.976;20.144;2022-07-23T10:31:35;28.30;48.40
36652;DHT22;53334;51.976;20.144;2022-07-23T10:34:40;28.30;48.50
36652;DHT22;53334;51.976;20.144;2022-07-23T10:37:24;28.30;48.40
36652;DHT22;53334;51.976;20.144;2022-07-23T10:40:10;28.30;48.50
36652;DHT22;53334;51.976;20.144;2022-07-23T10:42:51;28.30;48.40
36652;DHT22;53334;51.976;20.144;2022-07-23T10:45:29;28.30;48.40
36652;DHT22;53334;51.976;20.144;2022-07-23T10:48:25;28.40;48.50
36652;DHT22;53334;51.976;20.144;2022-07-23T10:51:07;28.30;48.40
36652;DHT22;53334;51.976;20.144;2022-07-23T10:53:55;28.30;48.40
36652;DHT22;53334;51.976;20.144;2022-07-23T10:56:49;28.30;48.40
36652;DHT22;53334;51.976;20.144;2022-07-23T10:59:24;28.30;48.40
36652;DHT22;53334;51.976;20.144;2022-07-23T11:02:22;28.30;48.40
36652;DHT22;53334;51.976;20.144;2022-07-23T11:05:00;28.30;48.40
36652;DHT22;53334;51.976;20.144;2022-07-23T11:07:35;28.30;48.40
36652;DHT22;53334;51.976;20.144;2022-07-23T11:10:32;28.30;48.40
36652;DHT22;53334;51.976;20.144;2022-07-23T11:13:35;28.30;48.40
36652;DHT22;53334;51.976;20.144;2022-07-23T11:16:19;28.30;48.40
36652;DHT22;53334;51.976;20.144;2022-07-23T11:19:08;28.30;48.40
36652;DHT22;53334;51.976;20.144;2022-07-23T11:21:48;28.30;48.40
36652;DHT22;53334;51.976;20.144;2022-07-23T11:24:24;28.30;48.40
36652;DHT22;53334;51.976;20.144;2022-07-23T11:27:01;28.30;48.40
36652;DHT22;53334;51.976;20.144;2022-07-23T11:29:46;28.30;48.40
36652;DHT22;53334;51.976;20.144;2022-07-23T11:32:29;28.30;48.40
36652;DHT22;53334;51.976;20.144;2022-07-23T11:35:25;28.40;48.40
36652;DHT22;53334;51.976;20.144;2022-07-23T11:38:06;28.40;48.40
36652;DHT22;53334;51.976;20.144;2022-07-23T11:40:41;28.40;48.40
36652;DHT22;53334;51.976;20.144;2022-07-23T11:43:15;28.40;48.40
36652;DHT22;53334;51.976;20.144;2022-07-23T11:45:50;28.40;48.40
36652;DHT22;53334;51.976;20.144;2022-07-23T11:48:26;28.40;48.40
36652;DHT22;53334;51.976;20.144;2022-07-23T11:51:00;28.40;48.40
36652;DHT22;53334;51.976;20.144;2022-07-23T11:53:36;28.40;48.40
36652;DHT22;53334;51.976;20.144;2022-07-23T11:56:11;28.40;48.40
36652;DHT22;53334;51.976;20.144;2022-07-23T11:58:54;28.40;48.40
36652;DHT22;53334;51.976;20.144;2022-07-23T12:01:31;28.40;48.40
36652;DHT22;53334;51.976;20.144;2022-07-23T12:04:05;28.40;48.40
36652;DHT22;53334;51.976;20.144;2022-07-23T12:06:41;28.40;48.40
36652;DHT22;53334;51.976;20.144;2022-07-23T12:09:17;28.40;48.40
36652;DHT22;53334;51.976;20.144;2022-07-23T12:11:59;28.40;48.40
36652;DHT22;53334;51.976;20.144;2022-07-23T12:14:33;28.40;48.30
36652;DHT22;53334;51.976;20.144;2022-07-23T12:17:21;28.40;48.40
36652;DHT22;53334;51.976;20.144;2022-07-23T12:20:01;28.40;48.30
36652;DHT22;53334;51.976;20.144;2022-07-23T12:22:38;28.40;48.40
36652;DHT22;53334;51.976;20.144;2022-07-23T12:25:15;28.40;48.30
36652;DHT22;53334;51.976;20.144;2022-07-23T12:27:59;28.40;48.40
36652;DHT22;53334;51.976;20.144;2022-07-23T12:30:37;28.40;48.30
36652;DHT22;53334;51.976;20.144;2022-07-23T12:33:13;28.40;48.30
36652;DHT22;53334;51.976;20.144;2022-07-23T12:35:48;28.40;48.30
36652;DHT22;53334;51.976;20.144;2022-07-23T12:38:25;28.40;48.30
36652;DHT22;53334;51.976;20.144;2022-07-23T12:41:00;28.40;48.30
36652;DHT22;53334;51.976;20.144;2022-07-23T12:43:37;28.40;48.30
36652;DHT22;53334;51.976;20.144;2022-07-23T12:46:12;28.40;48.30
36652;DHT22;53334;51.976;20.144;2022-07-23T12:48:51;28.40;48.30
36652;DHT22;53334;51.976;20.144;2022-07-23T12:51:28;28.40;48.30
36652;DHT22;53334;51.976;20.144;2022-07-23T12:54:06;28.40;48.30
36652;DHT22;53334;51.976;20.144;2022-07-23T12:56:44;28.40;48.30
36652;DHT22;53334;51.976;20.144;2022-07-23T12:59:20;28.40;48.30
36652;DHT22;53334;51.976;20.144;2022-07-23T13:01:55;28.40;48.30
36652;DHT22;53334;51.976;20.144;2022-07-23T13:04:30;28.40;48.30
36652;DHT22;53334;51.976;20.144;2022-07-23T13:07:06;28.40;48.30
36652;DHT22;53334;51.976;20.144;2022-07-23T13:09:40;28.40;48.30
36652;DHT22;53334;51.976;20.144;2022-07-23T13:12:16;28.40;48.30
36652;DHT22;53334;51.976;20.144;2022-07-23T13:14:50;28.40;48.30
36652;DHT22;53334;51.976;20.144;2022-07-23T13:17:24;28.40;48.30
36652;DHT22;53334;51.976;20.144;2022-07-23T13:19:58;28.40;48.40
36652;DHT22;53334;51.976;20.144;2022-07-23T13:22:32;28.40;48.40
36652;DHT22;53334;51.976;20.144;2022-07-23T13:25:08;28.40;48.40
36652;DHT22;53334;51.976;20.144;2022-07-23T13:27:43;28.40;48.40
36652;DHT22;53334;51.976;20.144;2022-07-23T13:30:17;28.40;48.40
36652;DHT22;53334;51.976;20.144;2022-07-23T13:32:56;28.40;48.40
36652;DHT22;53334;51.976;20.144;2022-07-23T13:35:32;28.40;48.40
36652;DHT22;53334;51.976;20.144;2022-07-23T13:38:07;28.40;48.40
36652;DHT22;53334;51.976;20.144;2022-07-23T13:40:43;28.40;48.40
36652;DHT22;53334;51.976;20.144;2022-07-23T13:43:22;28.40;48.50
36652;DHT22;53334;51.976;20.144;2022-07-23T13:45:58;28.40;48.60
36652;DHT22;53334;51.976;20.144;2022-07-23T13:48:32;28.40;48.70
36652;DHT22;53334;51.976;20.144;2022-07-23T13:51:07;28.40;48.80
36652;DHT22;53334;51.976;20.144;2022-07-23T13:53:42;28.40;48.80
36652;DHT22;53334;51.976;20.144;2022-07-23T13:56:17;28.40;48.80
36652;DHT22;53334;51.976;20.144;2022-07-23T13:58:54;28.40;48.90
36652;DHT22;53334;51.976;20.144;2022-07-23T14:01:28;28.40;48.90
36652;DHT22;53334;51.976;20.144;2022-07-23T14:04:22;28.40;49.50
36652;DHT22;53334;51.976;20.144;2022-07-23T14:06:56;28.40;48.90
36652;DHT22;53334;51.976;20.144;2022-07-23T14:09:30;28.40;49.00
36652;DHT22;53334;51.976;20.144;2022-07-23T14:12:07;28.40;49.10
36652;DHT22;53334;51.976;20.144;2022-07-23T14:14:44;28.40;49.00
36652;DHT22;53334;51.976;20.144;2022-07-23T14:17:19;28.40;49.00
36652;DHT22;53334;51.976;20.144;2022-07-23T14:19:53;28.40;49.10
36652;DHT22;53334;51.976;20.144;2022-07-23T14:22:27;28.40;49.10
36652;DHT22;53334;51.976;20.144;2022-07-23T14:25:01;28.40;49.10
36652;DHT22;53334;51.976;20.144;2022-07-23T14:27:39;28.40;49.10
36652;DHT22;53334;51.976;20.144;2022-07-23T14:30:14;28.40;49.20
36652;DHT22;53334;51.976;20.144;2022-07-23T14:32:54;28.40;49.10
36652;DHT22;53334;51.976;20.144;2022-07-23T14:35:29;28.40;49.10
36652;DHT22;53334;51.976;20.144;2022-07-23T14:38:03;28.40;49.20
36652;DHT22;53334;51.976;20.144;2022-07-23T14:40:37;28.40;49.20
36652;DHT22;53334;51.976;20.144;2022-07-23T14:43:10;28.40;49.30
36652;DHT22;53334;51.976;20.144;2022-07-23T14:45:46;28.30;49.20
36652;DHT22;53334;51.976;20.144;2022-07-23T14:48:20;28.30;49.30
36652;DHT22;53334;51.976;20.144;2022-07-23T14:50:54;28.30;49.20
36652;DHT22;53334;51.976;20.144;2022-07-23T14:53:29;28.30;49.20
36652;DHT22;53334;51.976;20.144;2022-07-23T14:56:04;28.40;49.30
36652;DHT22;53334;51.976;20.144;2022-07-23T14:58:38;28.30;49.30
36652;DHT22;53334;51.976;20.144;2022-07-23T15:01:14;28.30;49.30
36652;DHT22;53334;51.976;20.144;2022-07-23T15:03:48;28.30;49.40
36652;DHT22;53334;51.976;20.144;2022-07-23T15:06:22;28.30;49.40
36652;DHT22;53334;51.976;20.144;2022-07-23T15:08:57;28.30;49.50
36652;DHT22;53334;51.976;20.144;2022-07-23T15:11:34;28.30;50.00
36652;DHT22;53334;51.976;20.144;2022-07-23T15:14:09;28.30;49.40
36652;DHT22;53334;51.976;20.144;2022-07-23T15:16:51;28.30;49.40
36652;DHT22;53334;51.976;20.144;2022-07-23T15:19:25;28.30;49.50
36652;DHT22;53334;51.976;20.144;2022-07-23T15:22:02;28.30;49.50
36652;DHT22;53334;51.976;20.144;2022-07-23T15:24:38;28.30;49.50
36652;DHT22;53334;51.976;20.144;2022-07-23T15:27:12;28.30;49.50
36652;DHT22;53334;51.976;20.144;2022-07-23T15:29:46;28.30;49.50
36652;DHT22;53334;51.976;20.144;2022-07-23T15:32:21;28.30;49.50
36652;DHT22;53334;51.976;20.144;2022-07-23T15:34:59;28.30;49.50
36652;DHT22;53334;51.976;20.144;2022-07-23T15:37:35;28.30;49.50
36652;DHT22;53334;51.976;20.144;2022-07-23T15:40:11;28.30;49.50
36652;DHT22;53334;51.976;20.144;2022-07-23T15:42:45;28.30;49.50
36652;DHT22;53334;51.976;20.144;2022-07-23T15:45:19;28.20;49.40
36652;DHT22;53334;51.976;20.144;2022-07-23T15:47:58;28.30;49.50
36652;DHT22;53334;51.976;20.144;2022-07-23T15:50:32;28.20;49.40
36652;DHT22;53334;51.976;20.144;2022-07-23T15:53:08;28.20;49.40
36652;DHT22;53334;51.976;20.144;2022-07-23T15:55:47;28.30;49.50
36652;DHT22;53334;51.976;20.144;2022-07-23T15:58:21;28.20;49.40
36652;DHT22;53334;51.976;20.144;2022-07-23T16:00:56;28.20;49.40
36652;DHT22;53334;51.976;20.144;2022-07-23T16:03:32;28.20;49.50
36652;DHT22;53334;51.976;20.144;2022-07-23T16:06:07;28.20;49.50
36652;DHT22;53334;51.976;20.144;2022-07-23T16:08:50;28.20;49.50
36652;DHT22;53334;51.976;20.144;2022-07-23T16:11:24;28.20;49.50
36652;DHT22;53334;51.976;20.144;2022-07-23T16:13:58;28.20;49.50